sensor_id;sensor_type;location;lat;lon;timestamp;P1;durP1;ratioP1;P2;durP2;ratioP2
3811;SDS011;1921;49.368;11.068;2023-09-19T00:00:37;60.20;;;47.30;;
3811;SDS011;1921;49.368;11.068;2023-09-19T00:03:03;60.63;;;47.83;;
3811;SDS011;1921;49.368;11.068;2023-09-19T00:05:33;61.57;;;48.30;;
3811;SDS011;1921;49.368;11.068;2023-09-19T00:08:01;61.10;;;48.20;;
3811;SDS011;1921;49.368;11.068;2023-09-19T00:10:31;60.30;;;47.43;;
3811;SDS011;1921;49.368;11.068;2023-09-19T00:13:00;61.47;;;47.70;;
3811;SDS011;1921;49.368;11.068;2023-09-19T00:15:30;60.90;;;47.70;;
3811;SDS011;1921;49.368;11.068;2023-09-19T00:18:04;61.13;;;47.90;;
3811;SDS011;1921;49.368;11.068;2023-09-19T00:20:31;59.93;;;47.23;;
3811;SDS011;1921;49.368;11.068;2023-09-19T00:22:59;60.20;;;47.40;;
3811;SDS011;1921;49.368;11.068;2023-09-19T00:25:33;63.70;;;47.77;;
3811;SDS011;1921;49.368;11.068;2023-09-19T00:28:00;59.80;;;47.03;;
3811;SDS011;1921;49.368;11.068;2023-09-19T00:30:26;69.57;;;48.33;;
3811;SDS011;1921;49.368;11.068;2023-09-19T00:32:52;60.23;;;47.33;;
3811;SDS011;1921;49.368;11.068;2023-09-19T00:35:18;61.00;;;47.67;;
3811;SDS011;1921;49.368;11.068;2023-09-19T00:37:44;59.80;;;47.23;;
3811;SDS011;1921;49.368;11.068;2023-09-19T00:40:10;60.17;;;47.30;;
3811;SDS011;1921;49.368;11.068;2023-09-19T00:42:40;60.50;;;47.67;;
3811;SDS011;1921;49.368;11.068;2023-09-19T00:45:07;59.90;;;47.40;;
3811;SDS011;1921;49.368;11.068;2023-09-19T00:47:36;60.30;;;47.10;;
3811;SDS011;1921;49.368;11.068;2023-09-19T00:50:07;60.57;;;47.90;;
3811;SDS011;1921;49.368;11.068;2023-09-19T00:52:34;60.40;;;47.40;;
3811;SDS011;1921;49.368;11.068;2023-09-19T00:55:05;60.63;;;47.63;;
3811;SDS011;1921;49.368;11.068;2023-09-19T00:57:33;60.40;;;47.27;;
3811;SDS011;1921;49.368;11.068;2023-09-19T01:00:00;60.53;;;47.30;;
3811;SDS011;1921;49.368;11.068;2023-09-19T01:02:31;59.93;;;47.10;;
3811;SDS011;1921;49.368;11.068;2023-09-19T01:04:58;60.30;;;47.37;;
3811;SDS011;1921;49.368;11.068;2023-09-19T01:07:25;60.37;;;47.67;;
3811;SDS011;1921;49.368;11.068;2023-09-19T01:10:15;59.40;;;47.13;;
3811;SDS011;1921;49.368;11.068;2023-09-19T01:13:04;60.80;;;48.10;;
3811;SDS011;1921;49.368;11.068;2023-09-19T01:29:35;60.23;;;47.40;;
3811;SDS011;1921;49.368;11.068;2023-09-19T01:32:14;59.53;;;47.13;;
3811;SDS011;1921;49.368;11.068;2023-09-19T01:34:55;59.20;;;46.90;;
3811;SDS011;1921;49.368;11.068;2023-09-19T01:37:24;61.00;;;47.30;;
3811;SDS011;1921;49.368;11.068;2023-09-19T01:43:10;59.90;;;47.57;;
3811;SDS011;1921;49.368;11.068;2023-09-19T01:48:38;60.23;;;47.60;;
3811;SDS011;1921;49.368;11.068;2023-09-19T01:51:17;60.00;;;47.47;;
3811;SDS011;1921;49.368;11.068;2023-09-19T01:54:02;60.40;;;47.43;;
3811;SDS011;1921;49.368;11.068;2023-09-19T01:59:07;60.47;;;47.50;;
3811;SDS011;1921;49.368;11.068;2023-09-19T02:01:52;60.60;;;47.70;;
3811;SDS011;1921;49.368;11.068;2023-09-19T02:04:21;62.20;;;48.30;;
3811;SDS011;1921;49.368;11.068;2023-09-19T02:06:47;65.33;;;47.80;;
3811;SDS011;1921;49.368;11.068;2023-09-19T02:09:13;60.57;;;47.27;;
3811;SDS011;1921;49.368;11.068;2023-09-19T02:11:40;60.87;;;47.53;;
3811;SDS011;1921;49.368;11.068;2023-09-19T02:14:07;60.70;;;47.67;;
3811;SDS011;1921;49.368;11.068;2023-09-19T02:16:33;61.93;;;47.37;;
3811;SDS011;1921;49.368;11.068;2023-09-19T02:19:00;60.87;;;48.00;;
3811;SDS011;1921;49.368;11.068;2023-09-19T02:21:26;60.63;;;47.47;;
3811;SDS011;1921;49.368;11.068;2023-09-19T02:23:54;60.00;;;47.10;;
3811;SDS011;1921;49.368;11.068;2023-09-19T02:26:21;60.67;;;47.60;;
3811;SDS011;1921;49.368;11.068;2023-09-19T02:28:49;63.07;;;47.33;;
3811;SDS011;1921;49.368;11.068;2023-09-19T02:31:15;61.47;;;47.40;;
3811;SDS011;1921;49.368;11.068;2023-09-19T02:33:41;72.70;;;48.23;;
3811;SDS011;1921;49.368;11.068;2023-09-19T02:36:08;60.53;;;47.33;;
3811;SDS011;1921;49.368;11.068;2023-09-19T02:38:34;61.70;;;47.60;;
3811;SDS011;1921;49.368;11.068;2023-09-19T02:41:00;61.80;;;47.90;;
3811;SDS011;1921;49.368;11.068;2023-09-19T02:43:26;61.73;;;47.70;;
3811;SDS011;1921;49.368;11.068;2023-09-19T02:45:52;61.00;;;47.70;;
3811;SDS011;1921;49.368;11.068;2023-09-19T02:48:18;62.63;;;47.43;;
3811;SDS011;1921;49.368;11.068;2023-09-19T02:50:44;60.93;;;47.73;;
3811;SDS011;1921;49.368;11.068;2023-09-19T02:53:19;63.30;;;47.70;;
3811;SDS011;1921;49.368;11.068;2023-09-19T02:55:46;61.13;;;47.67;;
3811;SDS011;1921;49.368;11.068;2023-09-19T02:58:12;60.37;;;47.17;;
3811;SDS011;1921;49.368;11.068;2023-09-19T03:00:40;63.70;;;48.20;;
3811;SDS011;1921;49.368;11.068;2023-09-19T03:03:07;63.10;;;48.17;;
3811;SDS011;1921;49.368;11.068;2023-09-19T03:05:33;60.60;;;47.33;;
3811;SDS011;1921;49.368;11.068;2023-09-19T03:07:59;60.80;;;47.53;;
3811;SDS011;1921;49.368;11.068;2023-09-19T03:10:26;60.80;;;47.63;;
3811;SDS011;1921;49.368;11.068;2023-09-19T03:12:52;60.87;;;47.63;;
3811;SDS011;1921;49.368;11.068;2023-09-19T03:15:18;61.00;;;47.43;;
3811;SDS011;1921;49.368;11.068;2023-09-19T03:17:45;60.43;;;47.50;;
3811;SDS011;1921;49.368;11.068;2023-09-19T03:20:12;60.77;;;47.60;;
3811;SDS011;1921;49.368;11.068;2023-09-19T03:22:39;60.60;;;47.40;;
3811;SDS011;1921;49.368;11.068;2023-09-19T03:25:05;60.20;;;47.10;;
3811;SDS011;1921;49.368;11.068;2023-09-19T03:27:36;60.87;;;47.40;;
3811;SDS011;1921;49.368;11.068;2023-09-19T03:30:02;60.80;;;47.57;;
3811;SDS011;1921;49.368;11.068;2023-09-19T03:32:33;62.40;;;47.60;;
3811;SDS011;1921;49.368;11.068;2023-09-19T03:35:02;61.77;;;47.90;;
3811;SDS011;1921;49.368;11.068;2023-09-19T03:37:31;60.83;;;47.60;;
3811;SDS011;1921;49.368;11.068;2023-09-19T03:39:58;60.43;;;47.20;;
3811;SDS011;1921;49.368;11.068;2023-09-19T03:42:24;61.27;;;47.33;;
3811;SDS011;1921;49.368;11.068;2023-09-19T03:44:51;61.07;;;47.60;;
3811;SDS011;1921;49.368;11.068;2023-09-19T03:47:17;61.27;;;47.90;;
3811;SDS011;1921;49.368;11.068;2023-09-19T03:49:46;60.83;;;47.63;;
3811;SDS011;1921;49.368;11.068;2023-09-19T03:52:12;62.37;;;47.47;;
3811;SDS011;1921;49.368;11.068;2023-09-19T03:54:37;65.43;;;48.10;;
3811;SDS011;1921;49.368;11.068;2023-09-19T03:57:04;60.90;;;47.47;;
3811;SDS011;1921;49.368;11.068;2023-09-19T03:59:30;61.27;;;47.47;;
3811;SDS011;1921;49.368;11.068;2023-09-19T04:01:56;60.60;;;47.43;;
3811;SDS011;1921;49.368;11.068;2023-09-19T04:04:23;60.47;;;47.50;;
3811;SDS011;1921;49.368;11.068;2023-09-19T04:06:50;60.70;;;47.23;;
3811;SDS011;1921;49.368;11.068;2023-09-19T04:09:16;60.37;;;47.50;;
3811;SDS011;1921;49.368;11.068;2023-09-19T04:11:42;60.53;;;47.87;;
3811;SDS011;1921;49.368;11.068;2023-09-19T04:14:07;59.93;;;47.27;;
3811;SDS011;1921;49.368;11.068;2023-09-19T04:16:33;60.83;;;47.60;;
3811;SDS011;1921;49.368;11.068;2023-09-19T04:18:59;61.33;;;47.80;;
3811;SDS011;1921;49.368;11.068;2023-09-19T04:21:25;60.10;;;47.03;;
3811;SDS011;1921;49.368;11.068;2023-09-19T04:23:51;63.67;;;47.93;;
3811;SDS011;1921;49.368;11.068;2023-09-19T04:26:17;60.10;;;47.37;;
3811;SDS011;1921;49.368;11.068;2023-09-19T04:28:43;60.90;;;47.40;;
3811;SDS011;1921;49.368;11.068;2023-09-19T04:31:08;60.33;;;47.40;;
3811;SDS011;1921;49.368;11.068;2023-09-19T04:33:36;59.50;;;47.03;;
3811;SDS011;1921;49.368;11.068;2023-09-19T04:36:02;59.63;;;47.03;;
3811;SDS011;1921;49.368;11.068;2023-09-19T04:38:30;60.17;;;47.10;;
3811;SDS011;1921;49.368;11.068;2023-09-19T04:40:56;59.40;;;46.93;;
3811;SDS011;1921;49.368;11.068;2023-09-19T04:43:24;59.60;;;46.93;;
3811;SDS011;1921;49.368;11.068;2023-09-19T04:45:50;59.90;;;47.30;;
3811;SDS011;1921;49.368;11.068;2023-09-19T04:48:16;60.07;;;47.10;;
3811;SDS011;1921;49.368;11.068;2023-09-19T04:50:42;60.60;;;47.10;;
3811;SDS011;1921;49.368;11.068;2023-09-19T04:53:09;60.77;;;47.00;;
3811;SDS011;1921;49.368;11.068;2023-09-19T04:55:34;59.70;;;47.40;;
3811;SDS011;1921;49.368;11.068;2023-09-19T04:58:01;59.70;;;47.10;;
3811;SDS011;1921;49.368;11.068;2023-09-19T05:00:27;59.60;;;46.87;;
3811;SDS011;1921;49.368;11.068;2023-09-19T05:02:55;59.87;;;47.37;;
3811;SDS011;1921;49.368;11.068;2023-09-19T05:05:22;60.40;;;47.47;;
3811;SDS011;1921;49.368;11.068;2023-09-19T05:07:50;60.27;;;47.00;;
3811;SDS011;1921;49.368;11.068;2023-09-19T05:10:16;60.20;;;47.20;;
3811;SDS011;1921;49.368;11.068;2023-09-19T05:12:43;60.27;;;47.20;;
3811;SDS011;1921;49.368;11.068;2023-09-19T05:15:12;60.47;;;47.60;;
3811;SDS011;1921;49.368;11.068;2023-09-19T05:17:39;61.27;;;47.83;;
3811;SDS011;1921;49.368;11.068;2023-09-19T05:20:05;61.03;;;47.50;;
3811;SDS011;1921;49.368;11.068;2023-09-19T05:22:41;60.40;;;47.40;;
3811;SDS011;1921;49.368;11.068;2023-09-19T05:25:08;60.83;;;47.60;;
3811;SDS011;1921;49.368;11.068;2023-09-19T05:27:35;60.67;;;47.20;;
3811;SDS011;1921;49.368;11.068;2023-09-19T05:30:01;60.60;;;47.27;;
3811;SDS011;1921;49.368;11.068;2023-09-19T05:32:26;61.30;;;47.47;;
3811;SDS011;1921;49.368;11.068;2023-09-19T05:34:52;61.20;;;47.77;;
3811;SDS011;1921;49.368;11.068;2023-09-19T05:37:18;61.70;;;47.50;;
3811;SDS011;1921;49.368;11.068;2023-09-19T05:39:44;63.10;;;48.00;;
3811;SDS011;1921;49.368;11.068;2023-09-19T05:42:10;63.67;;;47.70;;
3811;SDS011;1921;49.368;11.068;2023-09-19T05:44:36;61.50;;;47.57;;
3811;SDS011;1921;49.368;11.068;2023-09-19T05:47:02;62.60;;;48.07;;
3811;SDS011;1921;49.368;11.068;2023-09-19T05:49:28;63.13;;;47.80;;
3811;SDS011;1921;49.368;11.068;2023-09-19T05:51:54;63.07;;;48.20;;
3811;SDS011;1921;49.368;11.068;2023-09-19T05:54:22;62.63;;;47.90;;
3811;SDS011;1921;49.368;11.068;2023-09-19T05:56:48;62.20;;;47.73;;
3811;SDS011;1921;49.368;11.068;2023-09-19T05:59:18;62.20;;;47.77;;
3811;SDS011;1921;49.368;11.068;2023-09-19T06:01:44;64.90;;;47.80;;
3811;SDS011;1921;49.368;11.068;2023-09-19T06:04:11;61.97;;;47.87;;
3811;SDS011;1921;49.368;11.068;2023-09-19T06:06:36;61.97;;;47.70;;
3811;SDS011;1921;49.368;11.068;2023-09-19T06:09:04;63.50;;;48.60;;
3811;SDS011;1921;49.368;11.068;2023-09-19T06:11:33;62.83;;;48.00;;
3811;SDS011;1921;49.368;11.068;2023-09-19T06:14:02;62.30;;;48.10;;
3811;SDS011;1921;49.368;11.068;2023-09-19T06:16:29;63.37;;;48.47;;
3811;SDS011;1921;49.368;11.068;2023-09-19T06:18:57;62.77;;;48.07;;
3811;SDS011;1921;49.368;11.068;2023-09-19T06:21:24;63.20;;;48.30;;
3811;SDS011;1921;49.368;11.068;2023-09-19T06:23:52;63.93;;;48.87;;
3811;SDS011;1921;49.368;11.068;2023-09-19T06:26:18;62.80;;;48.10;;
3811;SDS011;1921;49.368;11.068;2023-09-19T06:28:44;64.50;;;48.77;;
3811;SDS011;1921;49.368;11.068;2023-09-19T06:31:10;64.80;;;48.63;;
3811;SDS011;1921;49.368;11.068;2023-09-19T06:33:37;63.30;;;48.40;;
3811;SDS011;1921;49.368;11.068;2023-09-19T06:36:04;67.80;;;48.47;;
3811;SDS011;1921;49.368;11.068;2023-09-19T06:38:32;66.60;;;48.73;;
3811;SDS011;1921;49.368;11.068;2023-09-19T06:41:01;63.10;;;48.10;;
3811;SDS011;1921;49.368;11.068;2023-09-19T06:43:31;63.23;;;48.00;;
3811;SDS011;1921;49.368;11.068;2023-09-19T06:45:58;63.93;;;48.40;;
3811;SDS011;1921;49.368;11.068;2023-09-19T06:48:25;65.07;;;49.10;;
3811;SDS011;1921;49.368;11.068;2023-09-19T06:50:55;65.77;;;49.07;;
3811;SDS011;1921;49.368;11.068;2023-09-19T06:53:23;65.00;;;49.07;;
3811;SDS011;1921;49.368;11.068;2023-09-19T06:55:50;66.13;;;48.90;;
3811;SDS011;1921;49.368;11.068;2023-09-19T06:58:16;65.60;;;48.83;;
3811;SDS011;1921;49.368;11.068;2023-09-19T07:00:42;65.87;;;48.93;;
3811;SDS011;1921;49.368;11.068;2023-09-19T07:03:09;66.27;;;49.40;;
3811;SDS011;1921;49.368;11.068;2023-09-19T07:05:36;67.13;;;49.50;;
3811;SDS011;1921;49.368;11.068;2023-09-19T07:08:04;66.53;;;49.20;;
3811;SDS011;1921;49.368;11.068;2023-09-19T07:10:35;69.10;;;49.77;;
3811;SDS011;1921;49.368;11.068;2023-09-19T07:13:05;66.30;;;49.43;;
3811;SDS011;1921;49.368;11.068;2023-09-19T07:15:34;67.17;;;49.93;;
3811;SDS011;1921;49.368;11.068;2023-09-19T07:18:13;67.40;;;49.40;;
3811;SDS011;1921;49.368;11.068;2023-09-19T07:20:41;66.40;;;49.60;;
3811;SDS011;1921;49.368;11.068;2023-09-19T07:23:13;66.67;;;49.60;;
3811;SDS011;1921;49.368;11.068;2023-09-19T07:25:41;68.03;;;49.87;;
3811;SDS011;1921;49.368;11.068;2023-09-19T07:28:07;67.80;;;49.60;;
3811;SDS011;1921;49.368;11.068;2023-09-19T07:30:35;68.17;;;50.20;;
3811;SDS011;1921;49.368;11.068;2023-09-19T07:33:02;70.80;;;50.60;;
3811;SDS011;1921;49.368;11.068;2023-09-19T07:35:30;68.03;;;50.00;;
3811;SDS011;1921;49.368;11.068;2023-09-19T07:37:56;68.37;;;49.97;;
3811;SDS011;1921;49.368;11.068;2023-09-19T07:40:23;68.23;;;49.83;;
3811;SDS011;1921;49.368;11.068;2023-09-19T07:42:51;67.53;;;49.50;;
3811;SDS011;1921;49.368;11.068;2023-09-19T07:45:17;72.07;;;50.70;;
3811;SDS011;1921;49.368;11.068;2023-09-19T07:47:44;70.13;;;50.50;;
3811;SDS011;1921;49.368;11.068;2023-09-19T07:50:16;69.30;;;50.03;;
3811;SDS011;1921;49.368;11.068;2023-09-19T07:52:49;69.20;;;49.87;;
3811;SDS011;1921;49.368;11.068;2023-09-19T07:55:18;68.10;;;49.77;;
3811;SDS011;1921;49.368;11.068;2023-09-19T07:57:48;70.80;;;50.10;;
3811;SDS011;1921;49.368;11.068;2023-09-19T08:00:14;70.50;;;49.90;;
3811;SDS011;1921;49.368;11.068;2023-09-19T08:02:40;73.63;;;51.07;;
3811;SDS011;1921;49.368;11.068;2023-09-19T08:05:07;73.60;;;50.60;;
3811;SDS011;1921;49.368;11.068;2023-09-19T08:07:38;72.40;;;50.40;;
3811;SDS011;1921;49.368;11.068;2023-09-19T08:10:05;72.07;;;50.40;;
3811;SDS011;1921;49.368;11.068;2023-09-19T08:12:40;72.30;;;50.53;;
3811;SDS011;1921;49.368;11.068;2023-09-19T08:15:15;74.53;;;51.10;;
3811;SDS011;1921;49.368;11.068;2023-09-19T08:17:46;73.10;;;50.87;;
3811;SDS011;1921;49.368;11.068;2023-09-19T08:20:13;71.47;;;50.43;;
3811;SDS011;1921;49.368;11.068;2023-09-19T08:22:47;73.60;;;50.87;;
3811;SDS011;1921;49.368;11.068;2023-09-19T08:25:17;73.10;;;50.50;;
3811;SDS011;1921;49.368;11.068;2023-09-19T08:27:47;73.10;;;50.73;;
3811;SDS011;1921;49.368;11.068;2023-09-19T08:30:15;72.80;;;50.70;;
3811;SDS011;1921;49.368;11.068;2023-09-19T08:32:43;75.10;;;50.90;;
3811;SDS011;1921;49.368;11.068;2023-09-19T08:35:10;72.97;;;50.70;;
3811;SDS011;1921;49.368;11.068;2023-09-19T08:37:35;73.90;;;51.10;;
3811;SDS011;1921;49.368;11.068;2023-09-19T08:40:01;75.30;;;51.70;;
3811;SDS011;1921;49.368;11.068;2023-09-19T08:42:27;75.27;;;51.47;;
3811;SDS011;1921;49.368;11.068;2023-09-19T08:44:54;73.73;;;51.00;;
3811;SDS011;1921;49.368;11.068;2023-09-19T08:47:25;74.50;;;51.40;;
3811;SDS011;1921;49.368;11.068;2023-09-19T08:50:09;73.57;;;51.00;;
3811;SDS011;1921;49.368;11.068;2023-09-19T08:52:44;73.57;;;51.07;;
3811;SDS011;1921;49.368;11.068;2023-09-19T08:55:13;75.67;;;51.43;;
3811;SDS011;1921;49.368;11.068;2023-09-19T08:57:46;75.00;;;51.17;;
3811;SDS011;1921;49.368;11.068;2023-09-19T09:00:15;74.10;;;51.27;;
3811;SDS011;1921;49.368;11.068;2023-09-19T09:02:43;74.20;;;51.13;;
3811;SDS011;1921;49.368;11.068;2023-09-19T09:05:10;75.20;;;50.93;;
3811;SDS011;1921;49.368;11.068;2023-09-19T09:07:36;74.50;;;51.57;;
3811;SDS011;1921;49.368;11.068;2023-09-19T09:10:03;73.00;;;50.87;;
3811;SDS011;1921;49.368;11.068;2023-09-19T09:12:30;74.03;;;51.77;;
3811;SDS011;1921;49.368;11.068;2023-09-19T09:14:56;73.27;;;51.00;;
3811;SDS011;1921;49.368;11.068;2023-09-19T09:17:25;74.43;;;51.47;;
3811;SDS011;1921;49.368;11.068;2023-09-19T09:19:54;74.30;;;51.63;;
3811;SDS011;1921;49.368;11.068;2023-09-19T09:22:20;73.07;;;50.80;;
3811;SDS011;1921;49.368;11.068;2023-09-19T09:24:53;74.90;;;51.10;;
3811;SDS011;1921;49.368;11.068;2023-09-19T09:27:23;77.93;;;51.30;;
3811;SDS011;1921;49.368;11.068;2023-09-19T09:29:49;73.70;;;51.03;;
3811;SDS011;1921;49.368;11.068;2023-09-19T09:32:20;76.43;;;51.10;;
3811;SDS011;1921;49.368;11.068;2023-09-19T09:34:58;74.67;;;51.33;;
3811;SDS011;1921;49.368;11.068;2023-09-19T09:37:34;80.33;;;52.20;;
3811;SDS011;1921;49.368;11.068;2023-09-19T09:40:03;77.23;;;51.70;;
3811;SDS011;1921;49.368;11.068;2023-09-19T09:42:41;74.57;;;51.47;;
3811;SDS011;1921;49.368;11.068;2023-09-19T09:48:14;71.30;;;51.33;;
3811;SDS011;1921;49.368;11.068;2023-09-19T09:50:47;71.93;;;51.10;;
3811;SDS011;1921;49.368;11.068;2023-09-19T09:53:20;72.20;;;50.90;;
3811;SDS011;1921;49.368;11.068;2023-09-19T09:56:00;72.20;;;51.23;;
3811;SDS011;1921;49.368;11.068;2023-09-19T09:58:35;71.90;;;51.30;;
3811;SDS011;1921;49.368;11.068;2023-09-19T10:01:13;71.73;;;51.20;;
3811;SDS011;1921;49.368;11.068;2023-09-19T10:03:41;72.40;;;51.80;;
3811;SDS011;1921;49.368;11.068;2023-09-19T10:06:15;74.50;;;51.90;;
3811;SDS011;1921;49.368;11.068;2023-09-19T10:09:04;71.03;;;51.03;;
3811;SDS011;1921;49.368;11.068;2023-09-19T10:11:42;71.80;;;51.30;;
3811;SDS011;1921;49.368;11.068;2023-09-19T10:14:15;71.93;;;51.10;;
3811;SDS011;1921;49.368;11.068;2023-09-19T10:16:48;73.93;;;51.83;;
3811;SDS011;1921;49.368;11.068;2023-09-19T10:19:20;70.70;;;51.00;;
3811;SDS011;1921;49.368;11.068;2023-09-19T10:21:55;70.40;;;51.20;;
3811;SDS011;1921;49.368;11.068;2023-09-19T10:24:22;70.80;;;51.10;;
3811;SDS011;1921;49.368;11.068;2023-09-19T10:26:50;71.50;;;51.40;;
3811;SDS011;1921;49.368;11.068;2023-09-19T10:29:16;71.93;;;51.73;;
3811;SDS011;1921;49.368;11.068;2023-09-19T10:31:43;71.30;;;51.50;;
3811;SDS011;1921;49.368;11.068;2023-09-19T10:34:13;70.13;;;50.73;;
3811;SDS011;1921;49.368;11.068;2023-09-19T10:36:40;75.50;;;51.73;;
3811;SDS011;1921;49.368;11.068;2023-09-19T10:39:10;71.63;;;51.70;;
3811;SDS011;1921;49.368;11.068;2023-09-19T10:41:43;70.93;;;51.30;;
3811;SDS011;1921;49.368;11.068;2023-09-19T10:44:12;71.23;;;51.50;;
3811;SDS011;1921;49.368;11.068;2023-09-19T10:46:39;71.30;;;50.97;;
3811;SDS011;1921;49.368;11.068;2023-09-19T10:49:05;71.77;;;51.40;;
3811;SDS011;1921;49.368;11.068;2023-09-19T10:51:33;71.67;;;50.87;;
3811;SDS011;1921;49.368;11.068;2023-09-19T10:54:13;70.97;;;51.30;;
3811;SDS011;1921;49.368;11.068;2023-09-19T10:56:51;72.70;;;51.67;;
3811;SDS011;1921;49.368;11.068;2023-09-19T10:59:18;69.23;;;50.93;;
3811;SDS011;1921;49.368;11.068;2023-09-19T11:01:50;68.57;;;50.47;;
3811;SDS011;1921;49.368;11.068;2023-09-19T11:14:54;69.70;;;51.00;;
3811;SDS011;1921;49.368;11.068;2023-09-19T11:30:38;68.77;;;50.50;;
3811;SDS011;1921;49.368;11.068;2023-09-19T11:33:24;69.47;;;50.60;;
3811;SDS011;1921;49.368;11.068;2023-09-19T11:36:10;68.87;;;50.60;;
3811;SDS011;1921;49.368;11.068;2023-09-19T11:43:52;73.43;;;50.50;;
3811;SDS011;1921;49.368;11.068;2023-09-19T11:46:26;68.53;;;50.80;;
3811;SDS011;1921;49.368;11.068;2023-09-19T11:48:53;68.60;;;50.67;;
3811;SDS011;1921;49.368;11.068;2023-09-19T11:53:55;69.93;;;51.10;;
3811;SDS011;1921;49.368;11.068;2023-09-19T11:56:25;70.00;;;51.13;;
3811;SDS011;1921;49.368;11.068;2023-09-19T11:58:56;71.90;;;51.47;;
3811;SDS011;1921;49.368;11.068;2023-09-19T12:03:59;69.83;;;51.07;;
3811;SDS011;1921;49.368;11.068;2023-09-19T12:06:27;70.60;;;51.17;;
3811;SDS011;1921;49.368;11.068;2023-09-19T12:08:55;70.00;;;50.90;;
3811;SDS011;1921;49.368;11.068;2023-09-19T12:11:23;72.13;;;51.50;;
3811;SDS011;1921;49.368;11.068;2023-09-19T12:13:51;71.00;;;51.57;;
3811;SDS011;1921;49.368;11.068;2023-09-19T12:16:19;71.20;;;51.37;;
3811;SDS011;1921;49.368;11.068;2023-09-19T12:18:49;72.50;;;51.67;;
3811;SDS011;1921;49.368;11.068;2023-09-19T12:21:29;72.40;;;51.37;;
3811;SDS011;1921;49.368;11.068;2023-09-19T12:26:39;73.17;;;51.30;;
3811;SDS011;1921;49.368;11.068;2023-09-19T12:29:16;71.47;;;51.53;;
3811;SDS011;1921;49.368;11.068;2023-09-19T12:34:32;71.97;;;51.87;;
3811;SDS011;1921;49.368;11.068;2023-09-19T12:37:03;71.33;;;51.73;;
3811;SDS011;1921;49.368;11.068;2023-09-19T12:39:37;72.03;;;51.83;;
3811;SDS011;1921;49.368;11.068;2023-09-19T12:42:09;71.17;;;51.30;;
3811;SDS011;1921;49.368;11.068;2023-09-19T12:44:40;71.43;;;51.83;;
3811;SDS011;1921;49.368;11.068;2023-09-19T12:47:11;72.40;;;51.70;;
3811;SDS011;1921;49.368;11.068;2023-09-19T12:52:52;70.30;;;51.40;;
3811;SDS011;1921;49.368;11.068;2023-09-19T12:58:14;70.30;;;51.37;;
3811;SDS011;1921;49.368;11.068;2023-09-19T13:00:44;75.80;;;51.90;;
3811;SDS011;1921;49.368;11.068;2023-09-19T13:05:48;70.40;;;51.23;;
3811;SDS011;1921;49.368;11.068;2023-09-19T13:08:19;71.60;;;51.70;;
3811;SDS011;1921;49.368;11.068;2023-09-19T13:13:47;74.20;;;52.30;;
3811;SDS011;1921;49.368;11.068;2023-09-19T13:16:20;72.17;;;52.10;;
3811;SDS011;1921;49.368;11.068;2023-09-19T13:18:51;76.10;;;52.40;;
3811;SDS011;1921;49.368;11.068;2023-09-19T13:21:29;73.47;;;52.37;;
3811;SDS011;1921;49.368;11.068;2023-09-19T13:24:17;72.20;;;52.07;;
3811;SDS011;1921;49.368;11.068;2023-09-19T13:26:51;72.87;;;52.30;;
3811;SDS011;1921;49.368;11.068;2023-09-19T13:29:16;72.87;;;52.37;;
3811;SDS011;1921;49.368;11.068;2023-09-19T13:31:47;72.03;;;52.17;;
3811;SDS011;1921;49.368;11.068;2023-09-19T13:34:17;79.17;;;51.83;;
3811;SDS011;1921;49.368;11.068;2023-09-19T13:36:47;73.50;;;52.43;;
3811;SDS011;1921;49.368;11.068;2023-09-19T13:39:13;73.33;;;52.47;;
3811;SDS011;1921;49.368;11.068;2023-09-19T13:41:47;75.60;;;52.80;;
3811;SDS011;1921;49.368;11.068;2023-09-19T13:44:13;73.30;;;52.23;;
3811;SDS011;1921;49.368;11.068;2023-09-19T13:46:41;73.27;;;52.33;;
3811;SDS011;1921;49.368;11.068;2023-09-19T13:49:10;72.70;;;52.27;;
3811;SDS011;1921;49.368;11.068;2023-09-19T13:51:36;74.20;;;53.00;;
3811;SDS011;1921;49.368;11.068;2023-09-19T13:54:02;75.73;;;52.33;;
3811;SDS011;1921;49.368;11.068;2023-09-19T13:56:28;73.00;;;52.40;;
3811;SDS011;1921;49.368;11.068;2023-09-19T13:58:55;73.10;;;52.40;;
3811;SDS011;1921;49.368;11.068;2023-09-19T14:01:20;71.50;;;51.80;;
3811;SDS011;1921;49.368;11.068;2023-09-19T14:03:46;71.87;;;51.87;;
3811;SDS011;1921;49.368;11.068;2023-09-19T14:06:14;71.83;;;52.10;;
3811;SDS011;1921;49.368;11.068;2023-09-19T14:08:41;71.63;;;51.93;;
3811;SDS011;1921;49.368;11.068;2023-09-19T14:11:08;72.97;;;52.33;;
3811;SDS011;1921;49.368;11.068;2023-09-19T14:13:34;72.70;;;52.03;;
3811;SDS011;1921;49.368;11.068;2023-09-19T14:16:03;71.33;;;51.80;;
3811;SDS011;1921;49.368;11.068;2023-09-19T14:18:30;73.80;;;52.53;;
3811;SDS011;1921;49.368;11.068;2023-09-19T14:20:57;70.20;;;51.50;;
3811;SDS011;1921;49.368;11.068;2023-09-19T14:23:23;72.20;;;52.03;;
3811;SDS011;1921;49.368;11.068;2023-09-19T14:25:50;71.17;;;51.83;;
3811;SDS011;1921;49.368;11.068;2023-09-19T14:28:16;70.43;;;51.50;;
3811;SDS011;1921;49.368;11.068;2023-09-19T14:30:43;70.87;;;51.50;;
3811;SDS011;1921;49.368;11.068;2023-09-19T14:33:09;69.87;;;51.37;;
3811;SDS011;1921;49.368;11.068;2023-09-19T14:35:36;70.20;;;51.23;;
3811;SDS011;1921;49.368;11.068;2023-09-19T14:38:03;70.83;;;51.60;;
3811;SDS011;1921;49.368;11.068;2023-09-19T14:40:29;70.90;;;51.50;;
3811;SDS011;1921;49.368;11.068;2023-09-19T14:42:56;72.97;;;51.17;;
3811;SDS011;1921;49.368;11.068;2023-09-19T14:45:21;69.10;;;50.97;;
3811;SDS011;1921;49.368;11.068;2023-09-19T14:47:47;70.00;;;51.40;;
3811;SDS011;1921;49.368;11.068;2023-09-19T14:50:17;70.00;;;51.43;;
3811;SDS011;1921;49.368;11.068;2023-09-19T14:52:43;71.00;;;51.00;;
3811;SDS011;1921;49.368;11.068;2023-09-19T14:55:09;70.87;;;51.47;;
3811;SDS011;1921;49.368;11.068;2023-09-19T14:57:40;72.57;;;51.70;;
3811;SDS011;1921;49.368;11.068;2023-09-19T15:00:09;73.33;;;52.50;;
3811;SDS011;1921;49.368;11.068;2023-09-19T15:02:37;73.00;;;52.20;;
3811;SDS011;1921;49.368;11.068;2023-09-19T15:05:05;71.77;;;51.90;;
3811;SDS011;1921;49.368;11.068;2023-09-19T15:07:33;72.57;;;52.07;;
3811;SDS011;1921;49.368;11.068;2023-09-19T15:10:02;71.40;;;51.73;;
3811;SDS011;1921;49.368;11.068;2023-09-19T15:12:31;71.20;;;51.80;;
3811;SDS011;1921;49.368;11.068;2023-09-19T15:14:58;71.73;;;52.00;;
3811;SDS011;1921;49.368;11.068;2023-09-19T15:17:24;71.03;;;51.83;;
3811;SDS011;1921;49.368;11.068;2023-09-19T15:19:50;72.77;;;52.53;;
3811;SDS011;1921;49.368;11.068;2023-09-19T15:22:17;71.53;;;51.93;;
3811;SDS011;1921;49.368;11.068;2023-09-19T15:24:44;71.10;;;51.80;;
3811;SDS011;1921;49.368;11.068;2023-09-19T15:27:10;72.77;;;52.20;;
3811;SDS011;1921;49.368;11.068;2023-09-19T15:29:36;72.00;;;52.00;;
3811;SDS011;1921;49.368;11.068;2023-09-19T15:32:04;72.10;;;52.17;;
3811;SDS011;1921;49.368;11.068;2023-09-19T15:34:29;71.77;;;51.93;;
3811;SDS011;1921;49.368;11.068;2023-09-19T15:36:55;71.20;;;51.87;;
3811;SDS011;1921;49.368;11.068;2023-09-19T15:39:21;72.17;;;51.90;;
3811;SDS011;1921;49.368;11.068;2023-09-19T15:41:47;71.27;;;52.00;;
3811;SDS011;1921;49.368;11.068;2023-09-19T15:44:18;73.23;;;52.07;;
3811;SDS011;1921;49.368;11.068;2023-09-19T15:46:44;70.60;;;51.20;;
3811;SDS011;1921;49.368;11.068;2023-09-19T15:49:11;71.90;;;51.90;;
3811;SDS011;1921;49.368;11.068;2023-09-19T15:51:38;70.93;;;51.80;;
3811;SDS011;1921;49.368;11.068;2023-09-19T15:54:09;72.33;;;51.87;;
3811;SDS011;1921;49.368;11.068;2023-09-19T15:56:44;71.63;;;51.90;;
3811;SDS011;1921;49.368;11.068;2023-09-19T15:59:11;70.77;;;51.60;;